sensor_id;sensor_type;location;lat;lon;timestamp;temperature;humidity
49218;DHT22;35045;51.194;7.268;2023-11-19T00:00:51;9.20;99.90
49218;DHT22;35045;51.194;7.268;2023-11-19T00:03:18;9.20;99.90
49218;DHT22;35045;51.194;7.268;2023-11-19T00:05:45;9.20;99.90
49218;DHT22;35045;51.194;7.268;2023-11-19T00:08:11;9.20;99.90
49218;DHT22;35045;51.194;7.268;2023-11-19T00:10:37;9.30;99.90
49218;DHT22;35045;51.194;7.268;2023-11-19T00:13:03;9.30;99.90
49218;DHT22;35045;51.194;7.268;2023-11-19T00:15:30;9.30;99.90
49218;DHT22;35045;51.194;7.268;2023-11-19T00:17:56;9.30;99.90
49218;DHT22;35045;51.194;7.268;2023-11-19T00:20:24;9.40;99.90
49218;DHT22;35045;51.194;7.268;2023-11-19T00:22:50;9.40;99.90
49218;DHT22;35045;51.194;7.268;2023-11-19T00:25:20;9.40;99.90
49218;DHT22;35045;51.194;7.268;2023-11-19T00:27:47;9.50;99.90
49218;DHT22;35045;51.194;7.268;2023-11-19T00:30:14;9.60;99.90
49218;DHT22;35045;51.194;7.268;2023-11-19T00:32:41;9.60;99.90
49218;DHT22;35045;51.194;7.268;2023-11-19T00:35:08;9.60;99.90
49218;DHT22;35045;51.194;7.268;2023-11-19T00:37:36;9.70;99.90
49218;DHT22;35045;51.194;7.268;2023-11-19T00:40:02;9.70;99.90
49218;DHT22;35045;51.194;7.268;2023-11-19T00:42:32;9.70;99.90
49218;DHT22;35045;51.194;7.268;2023-11-19T00:44:58;9.80;99.90
49218;DHT22;35045;51.194;7.268;2023-11-19T00:47:24;9.80;99.90
49218;DHT22;35045;51.194;7.268;2023-11-19T00:49:51;9.80;99.90
49218;DHT22;35045;51.194;7.268;2023-11-19T00:52:17;9.90;99.90
49218;DHT22;35045;51.194;7.268;2023-11-19T00:54:44;9.90;99.90
49218;DHT22;35045;51.194;7.268;2023-11-19T00:57:10;9.90;99.90
49218;DHT22;35045;51.194;7.268;2023-11-19T00:59:37;10.00;99.90
49218;DHT22;35045;51.194;7.268;2023-11-19T01:02:03;10.00;99.90
49218;DHT22;35045;51.194;7.268;2023-11-19T01:04:35;10.00;99.90
49218;DHT22;35045;51.194;7.268;2023-11-19T01:07:02;10.00;99.90
49218;DHT22;35045;51.194;7.268;2023-11-19T01:09:38;10.10;99.90
49218;DHT22;35045;51.194;7.268;2023-11-19T01:12:05;10.10;99.90
49218;DHT22;35045;51.194;7.268;2023-11-19T01:14:31;10.10;99.90
49218;DHT22;35045;51.194;7.268;2023-11-19T01:16:58;10.20;99.90
49218;DHT22;35045;51.194;7.268;2023-11-19T01:19:24;10.20;99.90
49218;DHT22;35045;51.194;7.268;2023-11-19T01:21:51;10.20;99.90
49218;DHT22;35045;51.194;7.268;2023-11-19T01:24:18;10.20;99.90
49218;DHT22;35045;51.194;7.268;2023-11-19T01:26:44;10.20;99.90
49218;DHT22;35045;51.194;7.268;2023-11-19T01:29:12;10.20;99.90
49218;DHT22;35045;51.194;7.268;2023-11-19T01:31:46;10.30;99.90
49218;DHT22;35045;51.194;7.268;2023-11-19T01:34:13;10.30;99.90
49218;DHT22;35045;51.194;7.268;2023-11-19T01:36:39;10.20;99.90
49218;DHT22;35045;51.194;7.268;2023-11-19T01:39:06;10.30;99.90
49218;DHT22;35045;51.194;7.268;2023-11-19T01:41:35;10.30;99.90
49218;DHT22;35045;51.194;7.268;2023-11-19T01:44:02;10.40;99.90
49218;DHT22;35045;51.194;7.268;2023-11-19T01:46:30;10.40;99.90
49218;DHT22;35045;51.194;7.268;2023-11-19T01:48:59;10.40;99.90
49218;DHT22;35045;51.194;7.268;2023-11-19T01:51:26;10.50;99.90
49218;DHT22;35045;51.194;7.268;2023-11-19T01:53:53;10.50;99.90
49218;DHT22;35045;51.194;7.268;2023-11-19T01:56:20;10.50;99.90
49218;DHT22;35045;51.194;7.268;2023-11-19T01:58:48;10.50;99.90
49218;DHT22;35045;51.194;7.268;2023-11-19T02:01:15;10.50;99.90
49218;DHT22;35045;51.194;7.268;2023-11-19T02:03:42;10.60;99.90
49218;DHT22;35045;51.194;7.268;2023-11-19T02:06:09;10.60;99.90
49218;DHT22;35045;51.194;7.268;2023-11-19T02:08:36;10.70;99.90
49218;DHT22;35045;51.194;7.268;2023-11-19T02:11:05;10.70;99.90
49218;DHT22;35045;51.194;7.268;2023-11-19T02:13:32;10.80;99.90
49218;DHT22;35045;51.194;7.268;2023-11-19T02:15:59;10.80;99.90
49218;DHT22;35045;51.194;7.268;2023-11-19T02:18:28;10.80;99.90
49218;DHT22;35045;51.194;7.268;2023-11-19T02:20:55;10.80;99.90
49218;DHT22;35045;51.194;7.268;2023-11-19T02:23:21;10.90;99.90
49218;DHT22;35045;51.194;7.268;2023-11-19T02:25:58;10.90;99.90
49218;DHT22;35045;51.194;7.268;2023-11-19T02:28:26;10.90;99.90
49218;DHT22;35045;51.194;7.268;2023-11-19T02:30:53;11.00;99.90
49218;DHT22;35045;51.194;7.268;2023-11-19T02:33:19;11.00;99.90
49218;DHT22;35045;51.194;7.268;2023-11-19T02:35:45;11.00;99.90
49218;DHT22;35045;51.194;7.268;2023-11-19T02:38:11;11.00;99.90
49218;DHT22;35045;51.194;7.268;2023-11-19T02:40:40;11.10;99.90
49218;DHT22;35045;51.194;7.268;2023-11-19T02:43:06;11.10;99.90
49218;DHT22;35045;51.194;7.268;2023-11-19T02:45:32;11.10;99.90
49218;DHT22;35045;51.194;7.268;2023-11-19T02:47:58;11.10;99.90
49218;DHT22;35045;51.194;7.268;2023-11-19T02:50:27;11.20;99.90
49218;DHT22;35045;51.194;7.268;2023-11-19T02:52:55;11.20;99.90
49218;DHT22;35045;51.194;7.268;2023-11-19T02:55:24;11.20;99.90
49218;DHT22;35045;51.194;7.268;2023-11-19T02:57:51;11.10;99.90
49218;DHT22;35045;51.194;7.268;2023-11-19T03:00:21;11.20;99.90
49218;DHT22;35045;51.194;7.268;2023-11-19T03:02:51;11.20;99.90
49218;DHT22;35045;51.194;7.268;2023-11-19T03:05:31;11.30;99.90
49218;DHT22;35045;51.194;7.268;2023-11-19T03:07:57;11.30;99.90
49218;DHT22;35045;51.194;7.268;2023-11-19T03:10:23;11.30;99.90
49218;DHT22;35045;51.194;7.268;2023-11-19T03:12:50;11.30;99.90
49218;DHT22;35045;51.194;7.268;2023-11-19T03:15:17;11.30;99.90
49218;DHT22;35045;51.194;7.268;2023-11-19T03:17:43;11.30;99.90
49218;DHT22;35045;51.194;7.268;2023-11-19T03:20:11;11.30;99.90
49218;DHT22;35045;51.194;7.268;2023-11-19T03:22:41;11.30;99.90
49218;DHT22;35045;51.194;7.268;2023-11-19T03:25:08;11.30;99.90
49218;DHT22;35045;51.194;7.268;2023-11-19T03:27:38;11.30;99.90
49218;DHT22;35045;51.194;7.268;2023-11-19T03:30:06;11.30;99.90
49218;DHT22;35045;51.194;7.268;2023-11-19T03:32:32;11.40;99.90
49218;DHT22;35045;51.194;7.268;2023-11-19T03:35:01;11.40;99.90
49218;DHT22;35045;51.194;7.268;2023-11-19T03:37:27;11.40;99.90
49218;DHT22;35045;51.194;7.268;2023-11-19T03:39:54;11.40;99.90
49218;DHT22;35045;51.194;7.268;2023-11-19T03:42:21;11.40;99.90
49218;DHT22;35045;51.194;7.268;2023-11-19T03:44:47;11.40;99.90
49218;DHT22;35045;51.194;7.268;2023-11-19T03:47:15;11.50;99.90
49218;DHT22;35045;51.194;7.268;2023-11-19T03:49:41;11.40;99.90
49218;DHT22;35045;51.194;7.268;2023-11-19T03:52:08;11.50;99.90
49218;DHT22;35045;51.194;7.268;2023-11-19T03:54:35;11.40;99.90
49218;DHT22;35045;51.194;7.268;2023-11-19T03:57:01;11.40;99.90
49218;DHT22;35045;51.194;7.268;2023-11-19T03:59:29;11.50;99.90
49218;DHT22;35045;51.194;7.268;2023-11-19T04:01:55;11.50;99.90
49218;DHT22;35045;51.194;7.268;2023-11-19T04:04:22;11.50;99.90
49218;DHT22;35045;51.194;7.268;2023-11-19T04:06:48;11.50;99.90
49218;DHT22;35045;51.194;7.268;2023-11-19T04:09:15;11.50;99.90
49218;DHT22;35045;51.194;7.268;2023-11-19T04:11:41;11.50;99.90
49218;DHT22;35045;51.194;7.268;2023-11-19T04:14:07;11.50;99.90
49218;DHT22;35045;51.194;7.268;2023-11-19T04:16:33;11.50;99.90
49218;DHT22;35045;51.194;7.268;2023-11-19T04:18:59;11.50;99.90
49218;DHT22;35045;51.194;7.268;2023-11-19T04:21:26;11.50;99.90
49218;DHT22;35045;51.194;7.268;2023-11-19T04:23:53;11.50;99.90
49218;DHT22;35045;51.194;7.268;2023-11-19T04:26:19;11.40;99.90
49218;DHT22;35045;51.194;7.268;2023-11-19T04:28:45;11.50;99.90
49218;DHT22;35045;51.194;7.268;2023-11-19T04:31:11;11.50;99.90
49218;DHT22;35045;51.194;7.268;2023-11-19T04:33:37;11.50;99.90
49218;DHT22;35045;51.194;7.268;2023-11-19T04:36:04;11.50;99.90
49218;DHT22;35045;51.194;7.268;2023-11-19T04:38:30;11.50;99.90
49218;DHT22;35045;51.194;7.268;2023-11-19T04:40:57;11.50;99.90
49218;DHT22;35045;51.194;7.268;2023-11-19T04:43:23;11.50;99.90
49218;DHT22;35045;51.194;7.268;2023-11-19T04:45:49;11.50;99.90
49218;DHT22;35045;51.194;7.268;2023-11-19T04:48:15;11.50;99.90
49218;DHT22;35045;51.194;7.268;2023-11-19T04:50:42;11.50;99.90
49218;DHT22;35045;51.194;7.268;2023-11-19T04:53:08;11.50;99.90
49218;DHT22;35045;51.194;7.268;2023-11-19T04:55:34;11.50;99.90
49218;DHT22;35045;51.194;7.268;2023-11-19T04:58:00;11.50;99.90
49218;DHT22;35045;51.194;7.268;2023-11-19T05:00:27;11.40;99.90
49218;DHT22;35045;51.194;7.268;2023-11-19T05:02:53;11.40;99.90
49218;DHT22;35045;51.194;7.268;2023-11-19T05:05:19;11.40;99.90
49218;DHT22;35045;51.194;7.268;2023-11-19T05:07:45;11.40;99.90
49218;DHT22;35045;51.194;7.268;2023-11-19T05:10:13;11.40;99.90
49218;DHT22;35045;51.194;7.268;2023-11-19T05:12:39;11.40;99.90
49218;DHT22;35045;51.194;7.268;2023-11-19T05:15:05;11.40;99.90
49218;DHT22;35045;51.194;7.268;2023-11-19T05:17:32;11.40;99.90
49218;DHT22;35045;51.194;7.268;2023-11-19T05:19:58;11.40;99.90
49218;DHT22;35045;51.194;7.268;2023-11-19T05:22:24;11.40;99.90
49218;DHT22;35045;51.194;7.268;2023-11-19T05:24:52;11.40;99.90
49218;DHT22;35045;51.194;7.268;2023-11-19T05:27:18;11.40;99.90
49218;DHT22;35045;51.194;7.268;2023-11-19T05:29:44;11.40;99.90
49218;DHT22;35045;51.194;7.268;2023-11-19T05:32:10;11.40;99.90
49218;DHT22;35045;51.194;7.268;2023-11-19T05:34:37;11.40;99.90
49218;DHT22;35045;51.194;7.268;2023-11-19T05:37:16;11.30;99.90
49218;DHT22;35045;51.194;7.268;2023-11-19T05:39:42;11.30;99.90
49218;DHT22;35045;51.194;7.268;2023-11-19T05:42:08;11.30;99.90
49218;DHT22;35045;51.194;7.268;2023-11-19T05:44:35;11.40;99.90
49218;DHT22;35045;51.194;7.268;2023-11-19T05:47:04;11.30;99.90
49218;DHT22;35045;51.194;7.268;2023-11-19T05:49:31;11.30;99.90
49218;DHT22;35045;51.194;7.268;2023-11-19T05:51:57;11.30;99.90
49218;DHT22;35045;51.194;7.268;2023-11-19T05:54:24;11.30;99.90
49218;DHT22;35045;51.194;7.268;2023-11-19T05:56:50;11.30;99.90
49218;DHT22;35045;51.194;7.268;2023-11-19T05:59:16;11.20;99.90
49218;DHT22;35045;51.194;7.268;2023-11-19T06:01:44;11.30;99.90
49218;DHT22;35045;51.194;7.268;2023-11-19T06:04:10;11.30;99.90
49218;DHT22;35045;51.194;7.268;2023-11-19T06:06:36;11.20;99.90
49218;DHT22;35045;51.194;7.268;2023-11-19T06:09:03;11.20;99.90
49218;DHT22;35045;51.194;7.268;2023-11-19T06:11:34;11.20;99.90
49218;DHT22;35045;51.194;7.268;2023-11-19T06:14:00;11.20;99.90
49218;DHT22;35045;51.194;7.268;2023-11-19T06:16:26;11.20;99.90
49218;DHT22;35045;51.194;7.268;2023-11-19T06:18:53;11.20;99.90
49218;DHT22;35045;51.194;7.268;2023-11-19T06:21:19;11.20;99.90
49218;DHT22;35045;51.194;7.268;2023-11-19T06:23:46;11.20;99.90
49218;DHT22;35045;51.194;7.268;2023-11-19T06:26:12;11.10;99.90
49218;DHT22;35045;51.194;7.268;2023-11-19T06:28:40;11.10;99.90
49218;DHT22;35045;51.194;7.268;2023-11-19T06:31:06;11.10;99.90
49218;DHT22;35045;51.194;7.268;2023-11-19T06:33:32;11.10;99.90
49218;DHT22;35045;51.194;7.268;2023-11-19T06:35:59;11.10;99.90
49218;DHT22;35045;51.194;7.268;2023-11-19T06:38:25;11.10;99.90
49218;DHT22;35045;51.194;7.268;2023-11-19T06:40:52;11.10;99.90
49218;DHT22;35045;51.194;7.268;2023-11-19T06:43:18;11.00;99.90
49218;DHT22;35045;51.194;7.268;2023-11-19T06:45:45;11.00;99.90
49218;DHT22;35045;51.194;7.268;2023-11-19T06:48:11;11.00;99.90
49218;DHT22;35045;51.194;7.268;2023-11-19T06:50:37;10.90;99.90
49218;DHT22;35045;51.194;7.268;2023-11-19T06:53:03;10.90;99.90
49218;DHT22;35045;51.194;7.268;2023-11-19T06:55:32;10.80;99.90
49218;DHT22;35045;51.194;7.268;2023-11-19T06:58:00;10.90;99.90
49218;DHT22;35045;51.194;7.268;2023-11-19T07:00:26;10.80;99.90
49218;DHT22;35045;51.194;7.268;2023-11-19T07:02:52;10.80;99.90
49218;DHT22;35045;51.194;7.268;2023-11-19T07:05:19;10.80;99.90
49218;DHT22;35045;51.194;7.268;2023-11-19T07:07:45;10.80;99.90
49218;DHT22;35045;51.194;7.268;2023-11-19T07:10:13;10.80;99.90
49218;DHT22;35045;51.194;7.268;2023-11-19T07:12:39;10.80;99.90
49218;DHT22;35045;51.194;7.268;2023-11-19T07:15:05;10.70;99.90
49218;DHT22;35045;51.194;7.268;2023-11-19T07:17:32;10.70;99.90
49218;DHT22;35045;51.194;7.268;2023-11-19T07:19:58;10.70;99.90
49218;DHT22;35045;51.194;7.268;2023-11-19T07:22:26;10.70;99.90
49218;DHT22;35045;51.194;7.268;2023-11-19T07:24:52;10.70;99.90
49218;DHT22;35045;51.194;7.268;2023-11-19T07:27:19;10.70;99.90
49218;DHT22;35045;51.194;7.268;2023-11-19T07:29:45;10.60;99.90
49218;DHT22;35045;51.194;7.268;2023-11-19T07:32:12;10.60;99.90
49218;DHT22;35045;51.194;7.268;2023-11-19T07:34:39;10.60;99.90
49218;DHT22;35045;51.194;7.268;2023-11-19T07:37:06;10.50;99.90
49218;DHT22;35045;51.194;7.268;2023-11-19T07:39:32;10.50;99.90
49218;DHT22;35045;51.194;7.268;2023-11-19T07:41:58;10.50;99.90
49218;DHT22;35045;51.194;7.268;2023-11-19T07:44:24;10.50;99.90
49218;DHT22;35045;51.194;7.268;2023-11-19T07:46:51;10.50;99.90
49218;DHT22;35045;51.194;7.268;2023-11-19T07:49:18;10.50;99.90
49218;DHT22;35045;51.194;7.268;2023-11-19T07:51:44;10.40;99.90
49218;DHT22;35045;51.194;7.268;2023-11-19T07:54:10;10.40;99.90
49218;DHT22;35045;51.194;7.268;2023-11-19T07:56:36;10.40;99.90
49218;DHT22;35045;51.194;7.268;2023-11-19T07:59:03;10.40;99.90
49218;DHT22;35045;51.194;7.268;2023-11-19T08:01:29;10.50;99.90
49218;DHT22;35045;51.194;7.268;2023-11-19T08:03:55;10.50;99.90
49218;DHT22;35045;51.194;7.268;2023-11-19T08:06:23;10.50;99.90
49218;DHT22;35045;51.194;7.268;2023-11-19T08:08:49;10.50;99.90
49218;DHT22;35045;51.194;7.268;2023-11-19T08:11:15;10.50;99.90
49218;DHT22;35045;51.194;7.268;2023-11-19T08:13:41;10.60;99.90
49218;DHT22;35045;51.194;7.268;2023-11-19T08:16:08;10.60;99.90
49218;DHT22;35045;51.194;7.268;2023-11-19T08:18:35;10.60;99.90
49218;DHT22;35045;51.194;7.268;2023-11-19T08:21:01;10.60;99.90
49218;DHT22;35045;51.194;7.268;2023-11-19T08:23:30;10.70;99.90
49218;DHT22;35045;51.194;7.268;2023-11-19T08:25:56;10.80;99.90
49218;DHT22;35045;51.194;7.268;2023-11-19T08:28:23;10.70;99.90
49218;DHT22;35045;51.194;7.268;2023-11-19T08:30:49;10.80;99.90
49218;DHT22;35045;51.194;7.268;2023-11-19T08:33:16;10.80;99.90
49218;DHT22;35045;51.194;7.268;2023-11-19T08:35:43;10.80;99.90
49218;DHT22;35045;51.194;7.268;2023-11-19T08:38:09;10.80;99.90
49218;DHT22;35045;51.194;7.268;2023-11-19T08:40:35;10.80;99.90
49218;DHT22;35045;51.194;7.268;2023-11-19T08:43:01;10.80;99.90
49218;DHT22;35045;51.194;7.268;2023-11-19T08:45:27;10.80;99.90
49218;DHT22;35045;51.194;7.268;2023-11-19T08:47:54;10.80;99.90
49218;DHT22;35045;51.194;7.268;2023-11-19T08:50:20;10.90;99.90
49218;DHT22;35045;51.194;7.268;2023-11-19T08:52:46;10.80;99.90
49218;DHT22;35045;51.194;7.268;2023-11-19T08:55:12;10.90;99.90
49218;DHT22;35045;51.194;7.268;2023-11-19T08:57:39;10.90;99.90
49218;DHT22;35045;51.194;7.268;2023-11-19T09:00:07;11.00;99.90
49218;DHT22;35045;51.194;7.268;2023-11-19T09:02:35;11.00;99.90
49218;DHT22;35045;51.194;7.268;2023-11-19T09:05:04;11.00;99.90
49218;DHT22;35045;51.194;7.268;2023-11-19T09:07:31;11.10;99.90
49218;DHT22;35045;51.194;7.268;2023-11-19T09:09:57;11.10;99.90
49218;DHT22;35045;51.194;7.268;2023-11-19T09:12:23;11.20;99.90
49218;DHT22;35045;51.194;7.268;2023-11-19T09:14:50;11.20;99.90
49218;DHT22;35045;51.194;7.268;2023-11-19T09:17:16;11.20;99.90
49218;DHT22;35045;51.194;7.268;2023-11-19T09:19:44;11.20;99.90
49218;DHT22;35045;51.194;7.268;2023-11-19T09:22:10;11.30;99.90
49218;DHT22;35045;51.194;7.268;2023-11-19T09:24:36;11.30;99.90
49218;DHT22;35045;51.194;7.268;2023-11-19T09:27:02;11.20;99.90
49218;DHT22;35045;51.194;7.268;2023-11-19T09:29:31;11.20;99.90
49218;DHT22;35045;51.194;7.268;2023-11-19T09:31:58;11.20;99.90
49218;DHT22;35045;51.194;7.268;2023-11-19T09:34:24;11.20;99.90
49218;DHT22;35045;51.194;7.268;2023-11-19T09:36:51;11.30;99.90
49218;DHT22;35045;51.194;7.268;2023-11-19T09:39:17;11.30;99.90
49218;DHT22;35045;51.194;7.268;2023-11-19T09:41:44;11.30;99.90
49218;DHT22;35045;51.194;7.268;2023-11-19T09:44:14;11.30;99.90
49218;DHT22;35045;51.194;7.268;2023-11-19T09:46:44;11.40;99.90
49218;DHT22;35045;51.194;7.268;2023-11-19T09:49:11;11.40;99.90
49218;DHT22;35045;51.194;7.268;2023-11-19T09:51:39;11.40;99.90
49218;DHT22;35045;51.194;7.268;2023-11-19T09:54:05;11.40;99.90
49218;DHT22;35045;51.194;7.268;2023-11-19T09:56:33;11.40;99.90
49218;DHT22;35045;51.194;7.268;2023-11-19T09:59:00;11.50;99.90
49218;DHT22;35045;51.194;7.268;2023-11-19T10:01:26;11.50;99.90
49218;DHT22;35045;51.194;7.268;2023-11-19T10:03:55;11.50;99.90
49218;DHT22;35045;51.194;7.268;2023-11-19T10:06:22;11.60;99.90
49218;DHT22;35045;51.194;7.268;2023-11-19T10:08:50;11.50;99.90
49218;DHT22;35045;51.194;7.268;2023-11-19T10:11:17;11.50;99.90
49218;DHT22;35045;51.194;7.268;2023-11-19T10:13:43;11.40;99.90
49218;DHT22;35045;51.194;7.268;2023-11-19T10:16:13;11.40;99.90
49218;DHT22;35045;51.194;7.268;2023-11-19T10:18:47;11.40;99.90
49218;DHT22;35045;51.194;7.268;2023-11-19T10:21:14;11.50;99.90
49218;DHT22;35045;51.194;7.268;2023-11-19T10:23:56;11.50;99.90
49218;DHT22;35045;51.194;7.268;2023-11-19T10:26:28;11.50;99.90
49218;DHT22;35045;51.194;7.268;2023-11-19T10:28:56;11.50;99.90
49218;DHT22;35045;51.194;7.268;2023-11-19T10:31:22;11.50;99.90
49218;DHT22;35045;51.194;7.268;2023-11-19T10:33:53;11.50;99.90
49218;DHT22;35045;51.194;7.268;2023-11-19T10:36:19;11.50;99.90
49218;DHT22;35045;51.194;7.268;2023-11-19T10:38:53;11.50;99.90
49218;DHT22;35045;51.194;7.268;2023-11-19T10:41:30;11.50;99.90
49218;DHT22;35045;51.194;7.268;2023-11-19T10:43:57;11.50;99.90
49218;DHT22;35045;51.194;7.268;2023-11-19T10:46:36;11.50;99.90
49218;DHT22;35045;51.194;7.268;2023-11-19T10:49:03;11.50;99.90
49218;DHT22;35045;51.194;7.268;2023-11-19T10:51:31;11.60;99.90
49218;DHT22;35045;51.194;7.268;2023-11-19T10:54:02;11.70;99.90
49218;DHT22;35045;51.194;7.268;2023-11-19T10:56:33;11.80;99.90
49218;DHT22;35045;51.194;7.268;2023-11-19T10:59:00;11.80;99.90
49218;DHT22;35045;51.194;7.268;2023-11-19T11:01:32;11.80;99.90
49218;DHT22;35045;51.194;7.268;2023-11-19T11:04:02;11.80;99.90
49218;DHT22;35045;51.194;7.268;2023-11-19T11:06:29;11.80;99.90
49218;DHT22;35045;51.194;7.268;2023-11-19T11:08:56;11.80;99.90
49218;DHT22;35045;51.194;7.268;2023-11-19T11:11:23;11.80;99.90
49218;DHT22;35045;51.194;7.268;2023-11-19T11:13:52;11.70;99.90
49218;DHT22;35045;51.194;7.268;2023-11-19T11:16:22;11.70;99.90
49218;DHT22;35045;51.194;7.268;2023-11-19T11:18:50;11.70;99.90
49218;DHT22;35045;51.194;7.268;2023-11-19T11:21:21;11.60;99.90
49218;DHT22;35045;51.194;7.268;2023-11-19T11:38:01;11.60;99.90
49218;DHT22;35045;51.194;7.268;2023-11-19T11:40:28;11.60;99.90
49218;DHT22;35045;51.194;7.268;2023-11-19T11:42:55;11.70;99.90
49218;DHT22;35045;51.194;7.268;2023-11-19T11:45:36;11.60;99.90
49218;DHT22;35045;51.194;7.268;2023-11-19T11:48:09;11.60;99.90
49218;DHT22;35045;51.194;7.268;2023-11-19T11:50:47;11.70;99.90
49218;DHT22;35045;51.194;7.268;2023-11-19T11:53:19;11.70;99.90
49218;DHT22;35045;51.194;7.268;2023-11-19T11:58:18;11.90;99.90
49218;DHT22;35045;51.194;7.268;2023-11-19T12:00:46;11.90;99.90
49218;DHT22;35045;51.194;7.268;2023-11-19T12:03:12;11.90;99.90
49218;DHT22;35045;51.194;7.268;2023-11-19T12:05:41;11.80;99.90
49218;DHT22;35045;51.194;7.268;2023-11-19T12:08:10;11.70;99.90
49218;DHT22;35045;51.194;7.268;2023-11-19T12:10:44;11.70;99.90
49218;DHT22;35045;51.194;7.268;2023-11-19T12:13:11;11.70;99.90
49218;DHT22;35045;51.194;7.268;2023-11-19T12:18:29;11.60;99.90
49218;DHT22;35045;51.194;7.268;2023-11-19T12:20:56;11.70;99.90
49218;DHT22;35045;51.194;7.268;2023-11-19T12:23:23;11.70;99.90
49218;DHT22;35045;51.194;7.268;2023-11-19T12:25:49;11.70;99.90
49218;DHT22;35045;51.194;7.268;2023-11-19T12:28:16;11.80;99.90
49218;DHT22;35045;51.194;7.268;2023-11-19T12:30:44;11.80;99.90
49218;DHT22;35045;51.194;7.268;2023-11-19T12:33:11;11.90;99.90
49218;DHT22;35045;51.194;7.268;2023-11-19T12:35:44;11.90;99.90
49218;DHT22;35045;51.194;7.268;2023-11-19T12:38:23;11.90;99.90
49218;DHT22;35045;51.194;7.268;2023-11-19T12:41:06;12.00;99.90
49218;DHT22;35045;51.194;7.268;2023-11-19T12:43:32;12.10;99.90
49218;DHT22;35045;51.194;7.268;2023-11-19T12:46:26;12.20;99.90
49218;DHT22;35045;51.194;7.268;2023-11-19T12:48:53;12.30;99.90
49218;DHT22;35045;51.194;7.268;2023-11-19T12:51:19;12.30;99.90
49218;DHT22;35045;51.194;7.268;2023-11-19T12:53:50;12.20;99.90
49218;DHT22;35045;51.194;7.268;2023-11-19T12:56:19;12.10;99.90
49218;DHT22;35045;51.194;7.268;2023-11-19T12:58:45;12.10;99.90
49218;DHT22;35045;51.194;7.268;2023-11-19T13:01:16;12.00;99.90
49218;DHT22;35045;51.194;7.268;2023-11-19T13:03:43;12.00;99.90
49218;DHT22;35045;51.194;7.268;2023-11-19T13:06:12;11.90;99.90
49218;DHT22;35045;51.194;7.268;2023-11-19T13:08:41;11.90;99.90
49218;DHT22;35045;51.194;7.268;2023-11-19T13:11:08;11.90;99.90
49218;DHT22;35045;51.194;7.268;2023-11-19T13:13:57;11.90;99.90
49218;DHT22;35045;51.194;7.268;2023-11-19T13:16:24;11.90;99.90
49218;DHT22;35045;51.194;7.268;2023-11-19T13:18:51;11.90;99.90
49218;DHT22;35045;51.194;7.268;2023-11-19T13:21:18;11.90;99.90
49218;DHT22;35045;51.194;7.268;2023-11-19T13:23:44;12.00;99.90
49218;DHT22;35045;51.194;7.268;2023-11-19T13:26:11;12.00;99.90
49218;DHT22;35045;51.194;7.268;2023-11-19T13:28:38;12.10;99.90
49218;DHT22;35045;51.194;7.268;2023-11-19T13:31:04;11.90;99.90
49218;DHT22;35045;51.194;7.268;2023-11-19T13:33:31;11.80;99.90
49218;DHT22;35045;51.194;7.268;2023-11-19T13:35:57;11.90;99.90
49218;DHT22;35045;51.194;7.268;2023-11-19T13:38:24;11.90;99.90
49218;DHT22;35045;51.194;7.268;2023-11-19T13:40:50;11.90;99.90
49218;DHT22;35045;51.194;7.268;2023-11-19T13:43:17;11.90;99.90
49218;DHT22;35045;51.194;7.268;2023-11-19T13:45:43;11.90;99.90
49218;DHT22;35045;51.194;7.268;2023-11-19T13:48:09;11.80;99.90
49218;DHT22;35045;51.194;7.268;2023-11-19T13:50:35;11.80;99.90
49218;DHT22;35045;51.194;7.268;2023-11-19T13:53:02;11.80;99.90
49218;DHT22;35045;51.194;7.268;2023-11-19T13:55:28;11.70;99.90
49218;DHT22;35045;51.194;7.268;2023-11-19T13:57:54;11.70;99.90
49218;DHT22;35045;51.194;7.268;2023-11-19T14:00:20;11.70;99.90
49218;DHT22;35045;51.194;7.268;2023-11-19T14:02:48;11.70;99.90
49218;DHT22;35045;51.194;7.268;2023-11-19T14:05:15;11.70;99.90
49218;DHT22;35045;51.194;7.268;2023-11-19T14:07:44;11.70;99.90
49218;DHT22;35045;51.194;7.268;2023-11-19T14:10:10;11.70;99.90
49218;DHT22;35045;51.194;7.268;2023-11-19T14:12:40;11.70;99.90
49218;DHT22;35045;51.194;7.268;2023-11-19T14:15:08;11.60;99.90
49218;DHT22;35045;51.194;7.268;2023-11-19T14:17:41;11.50;99.90
49218;DHT22;35045;51.194;7.268;2023-11-19T14:20:08;11.50;99.90
49218;DHT22;35045;51.194;7.268;2023-11-19T14:22:45;11.50;99.90
49218;DHT22;35045;51.194;7.268;2023-11-19T14:25:15;11.50;99.90
49218;DHT22;35045;51.194;7.268;2023-11-19T14:27:43;11.50;99.90
49218;DHT22;35045;51.194;7.268;2023-11-19T14:30:13;11.40;99.90
49218;DHT22;35045;51.194;7.268;2023-11-19T14:32:40;11.40;99.90
49218;DHT22;35045;51.194;7.268;2023-11-19T14:35:08;11.40;99.90
49218;DHT22;35045;51.194;7.268;2023-11-19T14:37:34;11.40;99.90
49218;DHT22;35045;51.194;7.268;2023-11-19T14:40:01;11.40;99.90
49218;DHT22;35045;51.194;7.268;2023-11-19T14:42:30;11.20;99.90
49218;DHT22;35045;51.194;7.268;2023-11-19T14:44:56;11.10;99.90
49218;DHT22;35045;51.194;7.268;2023-11-19T14:47:22;11.00;99.90
49218;DHT22;35045;51.194;7.268;2023-11-19T14:49:49;11.00;99.90
49218;DHT22;35045;51.194;7.268;2023-11-19T14:52:16;10.90;99.90
49218;DHT22;35045;51.194;7.268;2023-11-19T14:54:42;10.80;99.90
49218;DHT22;35045;51.194;7.268;2023-11-19T14:57:08;10.70;99.90
49218;DHT22;35045;51.194;7.268;2023-11-19T14:59:36;10.70;99.90
49218;DHT22;35045;51.194;7.268;2023-11-19T15:02:02;10.70;99.90
49218;DHT22;35045;51.194;7.268;2023-11-19T15:04:29;10.60;99.90
49218;DHT22;35045;51.194;7.268;2023-11-19T15:06:59;10.60;99.90
49218;DHT22;35045;51.194;7.268;2023-11-19T15:09:26;10.50;99.90
49218;DHT22;35045;51.194;7.268;2023-11-19T15:11:55;10.50;99.90
49218;DHT22;35045;51.194;7.268;2023-11-19T15:14:21;10.50;99.90
49218;DHT22;35045;51.194;7.268;2023-11-19T15:16:48;10.50;99.90
49218;DHT22;35045;51.194;7.268;2023-11-19T15:19:17;10.50;99.90
49218;DHT22;35045;51.194;7.268;2023-11-19T15:21:44;10.50;99.90
49218;DHT22;35045;51.194;7.268;2023-11-19T15:24:10;10.50;99.90
49218;DHT22;35045;51.194;7.268;2023-11-19T15:26:37;10.50;99.90
49218;DHT22;35045;51.194;7.268;2023-11-19T15:29:04;10.50;99.90
49218;DHT22;35045;51.194;7.268;2023-11-19T15:31:31;10.40;99.90
49218;DHT22;35045;51.194;7.268;2023-11-19T15:33:57;10.40;99.90
49218;DHT22;35045;51.194;7.268;2023-11-19T15:36:24;10.40;99.90
49218;DHT22;35045;51.194;7.268;2023-11-19T15:38:50;10.50;99.90
49218;DHT22;35045;51.194;7.268;2023-11-19T15:41:18;10.40;99.90
49218;DHT22;35045;51.194;7.268;2023-11-19T15:43:44;10.40;99.90
49218;DHT22;35045;51.194;7.268;2023-11-19T15:46:10;10.30;99.90
49218;DHT22;35045;51.194;7.268;2023-11-19T15:48:37;10.30;99.90
49218;DHT22;35045;51.194;7.268;2023-11-19T15:51:04;10.30;99.90
49218;DHT22;35045;51.194;7.268;2023-11-19T15:53:30;10.20;99.90